Johan R — LM8480 — position and weather

sailwx.info

Track history (hours):
 
Tides and Currents Weather Stations Pressure Air Temp Water Temp Dewpoint Dewpoint Depression Visibility Wind Speed Wind Dir Waves Ship Positions

Johan R

Last reported at 2018-Feb-27 23:48 UTC. Time now 2018-May-24 08:15 UTC.
Position N 67°07' E 013°60'.
Warning: this ship's position is months out of date.

Length 12 m.

Type: Fishing. MMSI: 257422120.

Date/timePositionNaut miles runAvg speedWind from/ knotsBaromVisibWave heightAir tempDewpointWater temp
2018-Feb-27 23:48N 67°07' E 013°60'3 7.1
2018-Feb-27 23:26N 67°09' E 014°02'3 7.0
2018-Feb-27 23:00N 67°12' E 014°06'4 7.5
2018-Feb-27 22:30N 67°15' E 014°11'4 7.6
2018-Feb-27 22:00N 67°18' E 014°17'4 7.5
2018-Feb-27 21:30N 67°21' E 014°22'4 7.4
2018-Feb-27 21:00N 67°25' E 014°27'151 6.0
2018-Feb-26 19:56N 69°30' E 018°19'3 7.5
2018-Feb-26 19:30N 69°31' E 018°27'4 7.4
2018-Feb-26 19:00N 69°33' E 018°37'3 5.7
2018-Feb-26 18:30N 69°33' E 018°45'3 6.8
2018-Feb-26 17:59N 69°36' E 018°52'3 7.1
2018-Feb-26 17:30N 69°39' E 018°58'0 0.7
2018-Feb-26 16:58N 69°39' E 018°58'0 0.0
2018-Feb-26 16:22N 69°39' E 018°58'0 0.0
2018-Feb-26 15:58N 69°39' E 018°58'0 1.0
2018-Feb-26 15:30N 69°39' E 018°58'2 4.6
2018-Feb-26 15:00N 69°41' E 019°02'4 7.1
2018-Feb-26 14:30N 69°45' E 019°06'  
Track history (hours):
 
Tides and Currents Weather Stations Pressure Air Temp Water Temp Dewpoint Dewpoint Depression Visibility Wind Speed Wind Dir Waves Ship Positions

Johan R

Last reported at 2018-Feb-27 23:48 UTC. Time now 2018-May-24 08:15 UTC.
Position N 67°07' E 013°60'.
Warning: this ship's position is months out of date.

Length 12 m.

Type: Fishing. MMSI: 257422120.

Date/timePositionNaut miles runAvg speedWind from/ knotsBaromVisibWave heightAir tempDewpointWater temp
2018-Feb-27 23:48N 67°07' E 013°60'3 7.1
2018-Feb-27 23:26N 67°09' E 014°02'3 7.0
2018-Feb-27 23:00N 67°12' E 014°06'4 7.5
2018-Feb-27 22:30N 67°15' E 014°11'4 7.6
2018-Feb-27 22:00N 67°18' E 014°17'4 7.5
2018-Feb-27 21:30N 67°21' E 014°22'4 7.4
2018-Feb-27 21:00N 67°25' E 014°27'151 6.0
2018-Feb-26 19:56N 69°30' E 018°19'3 7.5
2018-Feb-26 19:30N 69°31' E 018°27'4 7.4
2018-Feb-26 19:00N 69°33' E 018°37'3 5.7
2018-Feb-26 18:30N 69°33' E 018°45'3 6.8
2018-Feb-26 17:59N 69°36' E 018°52'3 7.1
2018-Feb-26 17:30N 69°39' E 018°58'0 0.7
2018-Feb-26 16:58N 69°39' E 018°58'0 0.0
2018-Feb-26 16:22N 69°39' E 018°58'0 0.0
2018-Feb-26 15:58N 69°39' E 018°58'0 1.0
2018-Feb-26 15:30N 69°39' E 018°58'2 4.6
2018-Feb-26 15:00N 69°41' E 019°02'4 7.1
2018-Feb-26 14:30N 69°45' E 019°06'  

Dump ship's entire track history